Time;durP1;ratioP1;P1;durP2;ratioP2;P2;SDS_P1;SDS_P2;PMS_P1;PMS_P2;Temp;Humidity;BMP_temperature;BMP_pressure;BME280_temperature;BME280_humidity;BME280_pressure;Samples;Min_cycle;Max_cycle;Signal;HPM_P1;HPM_P2
2023/09/01 00:00:33;;;;;;;5.82;1.70;;;;;;;20.33;58.46;100061.88;4996680;28;20034;-74
2023/09/01 00:02:58;;;;;;;7.67;1.97;;;;;;;20.33;58.43;100064.56;4996198;28;20081;-74
2023/09/01 00:05:23;;;;;;;6.73;1.90;;;;;;;20.32;58.52;100057.47;4996698;28;20029;-74
2023/09/01 00:07:49;;;;;;;7.45;1.85;;;;;;;20.31;58.12;100060.25;4996428;28;20080;-75
2023/09/01 00:10:14;;;;;;;7.10;1.53;;;;;;;20.28;58.58;100061.25;4996538;28;20040;-75
2023/09/01 00:12:40;;;;;;;5.77;1.70;;;;;;;20.25;58.84;100053.38;4995970;28;20130;-74
2023/09/01 00:15:05;;;;;;;9.07;1.93;;;;;;;20.21;58.36;100059.81;4996459;28;20109;-74
2023/09/01 00:17:31;;;;;;;7.15;2.08;;;;;;;20.12;59.08;100060.22;4996171;28;20023;-75
2023/09/01 00:19:56;;;;;;;9.20;1.90;;;;;;;20.04;58.92;100053.44;4996476;28;20089;-74
2023/09/01 00:22:22;;;;;;;8.20;1.90;;;;;;;20.03;59.05;100053.53;4996482;28;20050;-75
2023/09/01 00:24:47;;;;;;;8.38;2.00;;;;;;;20.02;58.91;100050.00;4996537;28;20100;-74
2023/09/01 00:27:12;;;;;;;6.40;1.70;;;;;;;20.01;59.05;100039.34;5000175;28;20114;-75
2023/09/01 00:29:38;;;;;;;5.53;1.40;;;;;;;19.99;59.14;100039.44;4999966;28;20030;-73
2023/09/01 00:32:03;;;;;;;12.50;2.17;;;;;;;19.98;59.06;100040.38;5000002;28;20156;-75
2023/09/01 00:34:30;;;;;;;6.68;1.90;;;;;;;19.93;59.60;100035.25;4999990;28;20018;-74
2023/09/01 00:36:56;;;;;;;6.32;1.90;;;;;;;19.89;59.59;100032.75;5000093;28;20109;-75
2023/09/01 00:39:21;;;;;;;6.50;1.50;;;;;;;19.86;59.78;100032.91;4999828;28;20136;-74
2023/09/01 00:41:47;;;;;;;7.10;1.87;;;;;;;19.85;59.71;100026.69;4999724;28;20113;-74
2023/09/01 00:44:14;;;;;;;8.83;1.87;;;;;;;19.84;59.34;100026.75;4999561;28;20097;-74
2023/09/01 00:46:43;;;;;;;6.47;1.90;;;;;;;19.78;59.95;100031.47;4999717;28;20022;-74
2023/09/01 00:49:11;;;;;;;6.97;1.58;;;;;;;19.71;59.74;100019.34;4999539;28;20033;-75
2023/09/01 00:51:37;;;;;;;6.72;2.08;;;;;;;19.69;59.72;100031.91;4999679;28;20032;-74
2023/09/01 00:54:02;;;;;;;6.37;1.60;;;;;;;19.68;60.09;100024.81;4999773;28;20026;-74
2023/09/01 00:56:28;;;;;;;8.20;1.60;;;;;;;19.66;60.38;100026.69;4998321;28;20402;-75
2023/09/01 00:58:53;;;;;;;6.77;1.67;;;;;;;19.60;60.42;100029.63;4999013;28;20061;-75
2023/09/01 01:01:19;;;;;;;10.43;1.63;;;;;;;19.55;60.37;100031.66;4999429;28;20018;-74
2023/09/01 01:03:44;;;;;;;6.37;1.70;;;;;;;19.55;60.68;100036.97;4999845;28;20088;-74
2023/09/01 01:06:23;;;;;;;6.37;1.80;;;;;;;19.53;60.57;100028.19;4999215;28;20023;-74
2023/09/01 01:09:08;;;;;;;6.20;1.55;;;;;;;19.45;60.89;100034.75;4999506;28;20037;-74
2023/09/01 01:11:57;;;;;;;6.50;1.40;;;;;;;19.37;61.04;100034.19;4999248;28;20049;-74
2023/09/01 01:14:51;;;;;;;6.85;1.65;;;;;;;19.31;61.47;100027.34;4994595;28;20562;-74
2023/09/01 01:17:18;;;;;;;7.18;1.80;;;;;;;19.29;60.85;100031.00;4997237;28;20553;-74
2023/09/01 01:19:48;;;;;;;9.50;2.13;;;;;;;19.25;61.13;100022.25;4998496;28;20034;-75
2023/09/01 01:22:13;;;;;;;7.82;1.70;;;;;;;19.20;61.28;100027.81;4999277;28;20040;-75
2023/09/01 01:24:39;;;;;;;8.05;2.03;;;;;;;19.18;60.90;100021.69;4999181;28;20019;-74
2023/09/01 01:27:05;;;;;;;7.13;1.70;;;;;;;19.17;61.23;100024.41;4998908;28;20092;-74
2023/09/01 01:29:30;;;;;;;5.45;1.58;;;;;;;19.14;61.48;100025.41;4998809;28;20030;-74
2023/09/01 01:31:57;;;;;;;7.23;1.77;;;;;;;19.14;61.32;100020.06;4997875;28;20038;-73
2023/09/01 01:34:37;;;;;;;5.57;1.60;;;;;;;19.12;61.73;100021.94;4998886;28;20023;-74
2023/09/01 01:37:19;;;;;;;7.10;1.80;;;;;;;19.11;61.52;100017.53;4997767;28;20094;-74
2023/09/01 01:39:47;;;;;;;7.43;2.00;;;;;;;19.08;61.74;100018.53;4998919;28;20514;-74
2023/09/01 01:42:17;;;;;;;6.30;1.50;;;;;;;19.00;61.89;100017.13;4998561;28;20395;-74
2023/09/01 01:44:47;;;;;;;7.43;1.70;;;;;;;18.93;62.02;100020.06;4999050;28;20018;-74
2023/09/01 01:47:13;;;;;;;8.93;2.38;;;;;;;18.82;62.46;100022.28;4998734;28;20102;-74
2023/09/01 01:49:39;;;;;;;6.77;1.73;;;;;;;18.73;62.67;100025.34;4998548;28;20069;-74
2023/09/01 01:52:04;;;;;;;5.07;1.50;;;;;;;18.63;62.71;100023.06;4998545;28;20487;-74
2023/09/01 01:54:31;;;;;;;5.47;1.50;;;;;;;18.59;62.86;100024.13;4998398;28;20038;-74
2023/09/01 01:56:57;;;;;;;8.13;1.70;;;;;;;18.52;63.30;100025.31;4998563;28;20026;-74
2023/09/01 01:59:22;;;;;;;5.97;1.70;;;;;;;18.47;63.14;100025.50;4998212;28;20035;-74
2023/09/01 02:01:47;;;;;;;7.70;2.03;;;;;;;18.39;63.54;100021.41;4998203;28;20106;-74
2023/09/01 02:04:13;;;;;;;7.03;1.90;;;;;;;18.34;63.67;100032.28;4998519;28;20448;-74
2023/09/01 02:06:38;;;;;;;6.10;1.80;;;;;;;18.29;63.81;100016.44;4998273;28;20026;-74
2023/09/01 02:09:09;;;;;;;6.90;1.77;;;;;;;18.25;64.10;100020.19;4998505;28;20038;-75
2023/09/01 02:11:35;;;;;;;7.88;1.67;;;;;;;18.24;63.86;100018.44;4997980;28;20060;-74
2023/09/01 02:14:00;;;;;;;6.70;1.60;;;;;;;18.28;63.88;100017.38;4997783;28;20105;-74
2023/09/01 02:16:25;;;;;;;6.40;1.30;;;;;;;18.32;63.52;100005.66;4998017;28;20546;-74
2023/09/01 02:18:51;;;;;;;7.47;1.50;;;;;;;18.34;63.43;100000.28;4997968;28;20033;-74
2023/09/01 02:21:20;;;;;;;8.43;1.80;;;;;;;18.38;63.36;99993.00;4998006;28;20026;-74
2023/09/01 02:23:46;;;;;;;8.90;1.50;;;;;;;18.38;63.30;99991.22;4998110;28;20101;-74
2023/09/01 02:26:19;;;;;;;5.15;1.35;;;;;;;18.42;63.19;99994.59;4997815;28;20026;-74
2023/09/01 02:28:44;;;;;;;8.88;1.60;;;;;;;18.43;63.23;99996.34;4997657;28;20436;-74
2023/09/01 02:31:09;;;;;;;7.50;1.50;;;;;;;18.41;63.03;99992.88;4997610;28;20027;-74
2023/09/01 02:33:35;;;;;;;5.83;1.50;;;;;;;18.38;62.87;99985.00;4997790;28;20022;-74
2023/09/01 02:36:25;;;;;;;5.70;1.50;;;;;;;18.34;63.13;99982.47;4997609;28;20026;-74
2023/09/01 02:38:52;;;;;;;5.23;1.33;;;;;;;18.31;63.23;99982.59;4997612;28;20030;-74
2023/09/01 02:41:18;;;;;;;9.30;1.73;;;;;;;18.28;63.29;99988.06;4997764;28;20101;-74
2023/09/01 02:43:45;;;;;;;6.00;1.80;;;;;;;18.25;63.28;99990.84;4997505;28;20097;-74
2023/09/01 02:46:10;;;;;;;6.25;1.38;;;;;;;18.24;63.43;99983.78;4997589;28;20018;-74
2023/09/01 02:48:36;;;;;;;6.13;1.80;;;;;;;18.23;63.33;99984.72;4997210;28;20031;-74
2023/09/01 02:51:01;;;;;;;7.30;1.73;;;;;;;18.24;63.36;99986.47;4997400;28;20026;-74
2023/09/01 02:53:26;;;;;;;6.23;1.50;;;;;;;18.22;63.43;99990.97;4997364;28;20273;-74
2023/09/01 02:55:52;;;;;;;5.60;1.47;;;;;;;18.23;63.38;99987.38;4997465;28;20076;-74
2023/09/01 02:58:17;;;;;;;7.37;1.40;;;;;;;18.21;63.40;99975.94;4997143;28;20431;-74
2023/09/01 03:00:46;;;;;;;6.07;1.50;;;;;;;18.22;63.22;99983.84;4997298;28;20034;-74
2023/09/01 03:03:12;;;;;;;7.07;1.60;;;;;;;18.22;63.11;99980.31;4997404;28;20022;-74
2023/09/01 03:05:37;;;;;;;6.30;1.60;;;;;;;18.21;63.25;99975.94;4997124;28;20072;-74
2023/09/01 03:08:05;;;;;;;7.47;1.80;;;;;;;18.20;63.34;99977.72;4997043;28;20026;-74
2023/09/01 03:10:31;;;;;;;8.50;1.90;;;;;;;18.18;63.21;99976.03;4997365;28;20024;-74
2023/09/01 03:12:56;;;;;;;6.38;1.33;;;;;;;18.15;63.38;99976.16;4996667;28;20109;-74
2023/09/01 03:15:22;;;;;;;6.33;1.70;;;;;;;18.11;63.59;99975.44;4996858;28;20148;-74
2023/09/01 03:17:47;;;;;;;7.57;1.63;;;;;;;18.08;63.53;99971.06;4996930;28;20024;-74
2023/09/01 03:20:13;;;;;;;6.00;1.70;;;;;;;18.04;63.63;99974.78;4997183;28;20281;-74
2023/09/01 03:22:38;;;;;;;7.03;1.63;;;;;;;17.98;63.71;99974.13;4997066;28;20399;-74
2023/09/01 03:25:10;;;;;;;9.00;1.60;;;;;;;17.94;64.05;99968.06;4996794;28;20517;-74
2023/09/01 03:27:37;;;;;;;6.28;1.98;;;;;;;17.87;64.18;99971.88;4996719;28;20030;-74
2023/09/01 03:30:03;;;;;;;7.43;1.80;;;;;;;17.76;64.75;99973.19;4997103;28;20058;-74
2023/09/01 03:32:29;;;;;;;6.63;1.70;;;;;;;17.69;64.86;99969.00;4995571;28;20425;-73
2023/09/01 03:34:55;;;;;;;7.43;1.85;;;;;;;17.65;65.13;99970.06;4996865;28;20034;-74
2023/09/01 03:37:22;;;;;;;5.83;1.70;;;;;;;17.58;65.71;99972.06;4995632;28;20028;-74
2023/09/01 03:39:47;;;;;;;7.13;1.60;;;;;;;17.53;65.60;99974.06;4996884;28;20049;-74
2023/09/01 03:42:13;;;;;;;6.27;2.07;;;;;;;17.48;65.93;99978.69;4996433;28;20026;-74
2023/09/01 03:44:38;;;;;;;8.20;1.90;;;;;;;17.41;66.41;99975.38;4997045;28;20052;-74
2023/09/01 03:47:04;;;;;;;6.33;1.73;;;;;;;17.36;66.27;99977.34;4996334;28;20034;-74
2023/09/01 03:49:30;;;;;;;5.77;1.70;;;;;;;17.33;66.38;99972.16;4996773;28;20026;-74
2023/09/01 03:51:55;;;;;;;5.38;1.75;;;;;;;17.29;66.74;99973.19;4996774;28;20479;-74
2023/09/01 03:54:21;;;;;;;5.73;1.80;;;;;;;17.28;66.39;99966.13;4996767;28;20022;-73
2023/09/01 03:56:46;;;;;;;5.90;1.90;;;;;;;17.29;66.53;99965.22;4996841;28;20558;-74
2023/09/01 03:59:11;;;;;;;7.47;1.73;;;;;;;17.28;66.65;99964.31;4996603;28;20651;-74
2023/09/01 04:01:37;;;;;;;5.70;1.70;;;;;;;17.29;66.43;99959.88;4999671;28;20061;-74
2023/09/01 04:04:02;;;;;;;5.73;1.60;;;;;;;17.35;66.30;99959.66;5000753;28;20023;-74
2023/09/01 04:06:28;;;;;;;8.38;1.67;;;;;;;17.42;66.09;99966.47;5000687;28;20026;-74
2023/09/01 04:08:53;;;;;;;5.67;1.93;;;;;;;17.47;65.73;99963.66;5000840;28;20026;-73
2023/09/01 04:11:19;;;;;;;4.83;1.43;;;;;;;17.48;65.64;99968.94;5000311;28;20018;-73
2023/09/01 04:13:44;;;;;;;6.43;1.73;;;;;;;17.51;65.53;99959.94;5000305;28;20030;-73
2023/09/01 04:16:09;;;;;;;7.03;1.90;;;;;;;17.52;65.54;99960.81;5000409;28;20026;-74
2023/09/01 04:18:35;;;;;;;6.87;1.70;;;;;;;17.53;65.62;99951.91;5000340;28;20105;-73
2023/09/01 04:21:01;;;;;;;6.57;1.60;;;;;;;17.49;65.38;99953.81;5000622;28;20093;-73
2023/09/01 04:23:26;;;;;;;14.20;2.43;;;;;;;17.50;65.43;99947.56;5000236;28;20034;-73
2023/09/01 04:25:52;;;;;;;6.18;1.55;;;;;;;17.46;65.55;99946.78;5000168;28;20026;-73
2023/09/01 04:28:17;;;;;;;5.70;1.53;;;;;;;17.45;65.39;99947.72;4998879;28;20113;-73
2023/09/01 04:30:43;;;;;;;5.23;1.77;;;;;;;17.44;65.44;99945.13;5000202;28;20026;-73
2023/09/01 04:33:09;;;;;;;7.93;1.80;;;;;;;17.42;65.42;99944.31;5000229;28;20030;-73
2023/09/01 04:35:34;;;;;;;6.60;1.67;;;;;;;17.35;65.37;99949.00;5000280;28;20476;-73
2023/09/01 04:38:00;;;;;;;7.33;2.00;;;;;;;17.24;65.87;99949.41;5000177;28;20030;-73
2023/09/01 04:40:26;;;;;;;5.85;1.55;;;;;;;17.19;65.77;99954.88;4999954;28;20030;-73
2023/09/01 04:42:52;;;;;;;7.07;1.70;;;;;;;17.15;66.02;99952.41;4999543;28;20034;-73
2023/09/01 04:45:18;;;;;;;6.03;1.73;;;;;;;17.13;66.01;99955.13;4999817;28;20441;-73
2023/09/01 04:47:43;;;;;;;10.10;2.00;;;;;;;17.05;65.96;99954.53;4998600;28;20125;-73
2023/09/01 04:50:09;;;;;;;6.07;1.73;;;;;;;16.99;66.26;99960.03;4999703;28;20110;-73
2023/09/01 04:52:35;;;;;;;7.57;2.10;;;;;;;16.92;66.40;99952.25;4999920;28;20054;-73
2023/09/01 04:55:01;;;;;;;8.07;1.70;;;;;;;16.87;66.67;99951.56;4999704;28;20030;-73
2023/09/01 04:57:27;;;;;;;6.07;1.70;;;;;;;16.90;66.43;99958.56;4999509;28;20160;-74
2023/09/01 04:59:53;;;;;;;7.13;1.70;;;;;;;16.90;66.47;99958.56;4999687;28;20026;-73
2023/09/01 05:02:18;;;;;;;7.87;1.90;;;;;;;16.89;66.64;99949.72;4999814;28;20033;-73
2023/09/01 05:04:44;;;;;;;7.05;1.67;;;;;;;16.88;66.62;99950.63;4999551;28;20057;-73
2023/09/01 05:07:10;;;;;;;6.33;1.63;;;;;;;16.88;66.69;99953.28;4999542;28;20503;-73
2023/09/01 05:09:35;;;;;;;7.18;1.80;;;;;;;16.86;66.79;99952.50;4998365;28;20030;-73
2023/09/01 05:12:00;;;;;;;8.03;2.00;;;;;;;16.84;66.68;99949.00;4998978;28;20034;-73
2023/09/01 05:14:26;;;;;;;5.73;1.60;;;;;;;16.81;66.70;99951.78;4999016;28;20062;-73
2023/09/01 05:16:51;;;;;;;6.57;1.87;;;;;;;16.78;66.88;99949.25;4999496;28;20491;-73
2023/09/01 05:19:16;;;;;;;6.77;1.70;;;;;;;16.75;66.77;99938.69;4999125;28;20030;-73
2023/09/01 05:21:42;;;;;;;6.38;1.70;;;;;;;16.73;66.92;99945.84;4999330;28;20065;-73
2023/09/01 05:24:08;;;;;;;5.97;1.87;;;;;;;16.74;67.13;99939.59;4999376;28;20022;-73
2023/09/01 05:26:34;;;;;;;6.88;2.40;;;;;;;16.72;67.21;99933.47;4999294;28;20034;-73
2023/09/01 05:28:59;;;;;;;6.73;1.80;;;;;;;16.73;67.01;99943.19;4998780;28;20039;-73
2023/09/01 05:31:25;;;;;;;9.35;1.73;;;;;;;16.73;67.06;99929.91;4998850;28;20034;-73
2023/09/01 05:33:50;;;;;;;7.33;2.00;;;;;;;16.73;67.05;99933.44;4997722;28;20093;-73
2023/09/01 05:36:16;;;;;;;6.77;1.70;;;;;;;16.71;67.21;99929.97;4999122;28;20034;-73
2023/09/01 05:38:41;;;;;;;6.47;1.80;;;;;;;16.70;67.28;99928.22;4998752;28;20448;-73
2023/09/01 05:41:10;;;;;;;7.38;1.90;;;;;;;16.70;67.37;99925.56;4998996;28;20018;-73
2023/09/01 05:43:35;;;;;;;6.87;2.03;;;;;;;16.73;67.05;99922.81;4998584;28;20026;-74
2023/09/01 05:46:01;;;;;;;7.07;1.80;;;;;;;16.77;67.09;99924.44;4998809;28;20483;-73
2023/09/01 05:48:26;;;;;;;7.37;1.73;;;;;;;16.84;66.92;99922.44;4999127;28;20054;-74
2023/09/01 05:50:52;;;;;;;8.10;1.73;;;;;;;16.93;66.71;99927.41;4997740;28;20053;-74
2023/09/01 05:53:17;;;;;;;8.27;1.73;;;;;;;16.99;66.40;99928.13;4998977;28;20456;-74
2023/09/01 05:55:43;;;;;;;5.97;1.80;;;;;;;17.05;66.39;99919.94;4997593;28;20033;-74
2023/09/01 05:58:08;;;;;;;7.53;1.80;;;;;;;17.13;66.19;99912.53;4998649;28;20389;-74
2023/09/01 06:00:34;;;;;;;6.93;1.70;;;;;;;17.21;65.84;99921.09;4998218;28;20393;-74
2023/09/01 06:02:59;;;;;;;8.68;1.50;;;;;;;17.29;65.93;99911.97;4998644;28;20069;-73
2023/09/01 06:05:25;;;;;;;8.50;1.87;;;;;;;17.60;65.14;99916.13;4996176;28;20045;-73
2023/09/01 06:07:50;;;;;;;6.93;1.60;;;;;;;17.88;64.38;99913.25;4998555;28;20026;-73
2023/09/01 06:10:15;;;;;;;7.17;2.33;;;;;;;18.02;63.92;99914.50;4998387;28;20022;-72
2023/09/01 06:12:41;;;;;;;5.65;1.73;;;;;;;18.25;63.18;99918.91;4997339;28;20050;-73
2023/09/01 06:15:07;;;;;;;8.77;1.90;;;;;;;18.49;62.72;99918.78;4998390;28;20027;-73
2023/09/01 06:17:33;;;;;;;9.27;1.85;;;;;;;18.79;61.92;99919.25;4998011;28;20415;-74
2023/09/01 06:19:58;;;;;;;7.10;2.00;;;;;;;19.01;61.48;99912.13;4998058;28;20038;-74
2023/09/01 06:22:24;;;;;;;7.72;1.85;;;;;;;19.08;61.19;99911.78;4997835;28;20030;-74
2023/09/01 06:24:49;;;;;;;6.87;1.80;;;;;;;19.23;61.09;99912.00;4997993;28;20072;-73
2023/09/01 06:27:15;;;;;;;5.70;1.80;;;;;;;19.22;60.87;99913.84;4998095;28;20503;-73
2023/09/01 06:29:40;;;;;;;7.77;1.97;;;;;;;19.31;60.76;99914.34;4997712;28;20030;-74
2023/09/01 06:32:08;;;;;;;6.83;1.80;;;;;;;19.32;61.16;99916.06;4997658;28;20265;-73
2023/09/01 06:34:33;;;;;;;7.60;2.10;;;;;;;19.47;61.00;99918.03;4996573;28;20030;-73
2023/09/01 06:36:59;;;;;;;7.60;2.07;;;;;;;19.56;60.91;99921.19;4997966;28;20038;-73
2023/09/01 06:39:24;;;;;;;7.50;1.87;;;;;;;19.49;61.12;99924.16;4996655;28;20231;-76
2023/09/01 06:41:49;;;;;;;7.83;2.30;;;;;;;19.28;61.67;99926.00;4997924;28;20026;-72
2023/09/01 06:44:15;;;;;;;5.53;1.80;;;;;;;19.09;61.83;99928.66;4997670;28;20395;-72
2023/09/01 06:46:40;;;;;;;10.03;2.20;;;;;;;18.94;62.43;99923.06;4997620;28;20022;-72
2023/09/01 06:49:06;;;;;;;5.90;1.77;;;;;;;19.05;61.80;99914.59;4997711;28;20105;-72
2023/09/01 06:51:31;;;;;;;8.17;2.23;;;;;;;19.08;62.18;99917.13;4996554;28;20029;-72
2023/09/01 06:53:56;;;;;;;5.70;1.60;;;;;;;19.09;61.91;99920.66;4997868;28;20019;-74
2023/09/01 06:56:22;;;;;;;7.10;1.93;;;;;;;19.25;61.93;99914.63;4997486;28;20030;-74
2023/09/01 06:58:47;;;;;;;7.00;1.90;;;;;;;19.45;61.26;99911.03;4997786;28;20105;-74
2023/09/01 07:01:15;;;;;;;6.70;2.25;;;;;;;19.47;61.12;99910.03;4997413;28;20033;-74
2023/09/01 07:03:41;;;;;;;8.23;1.97;;;;;;;19.64;60.94;99911.00;4997410;28;20038;-73
2023/09/01 07:06:06;;;;;;;6.63;2.20;;;;;;;19.74;60.65;99917.66;4997409;28;20033;-74
2023/09/01 07:08:32;;;;;;;7.47;1.70;;;;;;;19.80;60.83;99911.16;4997597;28;20109;-74
2023/09/01 07:11:05;;;;;;;7.15;2.10;;;;;;;19.94;60.05;99907.84;4997490;28;20042;-74
2023/09/01 07:13:31;;;;;;;7.22;1.88;;;;;;;20.16;60.01;99912.16;4990534;28;20046;-74
2023/09/01 07:15:57;;;;;;;7.40;2.00;;;;;;;20.24;59.99;99909.94;4996916;28;20030;-75
2023/09/01 07:18:23;;;;;;;9.25;1.77;;;;;;;20.39;59.23;99912.78;4994448;28;20073;-75
2023/09/01 07:20:49;;;;;;;7.07;1.70;;;;;;;20.62;59.05;99907.13;4997600;28;20026;-75
2023/09/01 07:23:15;;;;;;;6.33;1.80;;;;;;;20.91;58.63;99903.88;4997452;28;20479;-75
2023/09/01 07:25:42;;;;;;;6.72;1.60;;;;;;;21.11;57.86;99894.81;4997089;28;20079;-75
2023/09/01 07:28:07;;;;;;;9.20;2.00;;;;;;;21.29;57.47;99894.72;4997075;28;20117;-75
2023/09/01 07:30:33;;;;;;;7.53;1.70;;;;;;;21.49;57.23;99899.00;4995851;28;20116;-74
2023/09/01 07:32:59;;;;;;;7.77;1.70;;;;;;;21.67;56.85;99894.44;4996945;28;20113;-75
2023/09/01 07:35:24;;;;;;;6.43;1.42;;;;;;;21.84;56.59;99898.00;4995847;28;20400;-75
2023/09/01 07:37:50;;;;;;;7.50;1.50;;;;;;;21.97;56.18;99892.78;4997164;28;20056;-78
2023/09/01 07:40:15;;;;;;;6.23;1.70;;;;;;;22.02;55.76;99891.56;4996925;28;20046;-78
2023/09/01 07:42:41;;;;;;;9.32;2.45;;;;;;;22.14;55.70;99889.13;4996775;28;20101;-78
2023/09/01 07:45:06;;;;;;;6.93;1.60;;;;;;;22.33;55.41;99888.91;4995683;28;20030;-79
2023/09/01 07:47:32;;;;;;;6.37;1.53;;;;;;;22.50;55.31;99893.28;4996925;28;20109;-79
2023/09/01 07:49:58;;;;;;;7.05;1.80;;;;;;;22.60;55.05;99886.41;4996601;28;20030;-75
2023/09/01 07:52:23;;;;;;;8.23;1.67;;;;;;;22.73;54.69;99882.97;4997037;28;20113;-76
2023/09/01 07:54:49;;;;;;;4.65;1.45;;;;;;;22.90;54.23;99881.94;4996778;28;20034;-77
2023/09/01 07:57:14;;;;;;;9.20;2.23;;;;;;;23.01;53.96;99882.13;4996551;28;20089;-76
2023/09/01 07:59:40;;;;;;;7.67;1.50;;;;;;;23.17;53.95;99887.41;4996701;28;20030;-76
2023/09/01 08:02:06;;;;;;;6.20;1.40;;;;;;;23.36;53.29;99883.59;4996787;28;20364;-75
2023/09/01 08:04:31;;;;;;;7.00;1.70;;;;;;;23.60;53.02;99885.66;4996641;28;20488;-75
2023/09/01 08:06:59;;;;;;;8.60;1.90;;;;;;;23.82;52.49;99884.25;4996527;28;20101;-74
2023/09/01 08:09:25;;;;;;;8.90;1.80;;;;;;;24.08;51.70;99880.72;4995404;28;20073;-75
2023/09/01 08:11:50;;;;;;;9.55;1.58;;;;;;;24.33;51.45;99889.84;4996546;28;20046;-75
2023/09/01 08:14:16;;;;;;;7.17;1.70;;;;;;;24.62;50.21;99886.13;4996093;28;20104;-75
2023/09/01 08:16:41;;;;;;;9.27;1.60;;;;;;;24.86;49.77;99885.41;4996643;28;20027;-77
2023/09/01 08:19:07;;;;;;;6.53;1.63;;;;;;;25.02;49.65;99886.03;4996497;28;20038;-76
2023/09/01 08:21:33;;;;;;;11.53;1.80;;;;;;;25.15;49.52;99872.53;4996608;28;20033;-75
2023/09/01 08:23:59;;;;;;;9.20;1.85;;;;;;;25.28;48.77;99869.81;4995893;28;20026;-76
2023/09/01 08:26:25;;;;;;;13.15;1.80;;;;;;;25.43;48.97;99873.22;4990819;28;20595;-75
2023/09/01 08:28:50;;;;;;;8.60;1.80;;;;;;;25.49;48.82;99875.53;4992156;28;20061;-75
2023/09/01 08:31:16;;;;;;;9.67;1.63;;;;;;;25.55;48.49;99874.19;4996356;28;20057;-74
2023/09/01 08:33:41;;;;;;;25.30;3.63;;;;;;;25.54;48.54;99879.72;4992590;28;20034;-75
2023/09/01 08:36:07;;;;;;;12.70;1.77;;;;;;;25.59;48.66;99869.47;4989968;28;20034;-75
2023/09/01 08:38:32;;;;;;;9.63;1.83;;;;;;;25.69;48.47;99875.91;4994374;28;20026;-76
2023/09/01 08:41:03;;;;;;;5.50;1.40;;;;;;;25.71;47.95;99865.88;4995118;28;20018;-75
2023/09/01 08:43:35;;;;;;;9.32;1.90;;;;;;;25.84;47.99;99860.41;4989988;28;20399;-76
2023/09/01 08:46:05;;;;;;;7.30;1.50;;;;;;;25.90;47.49;99865.34;4993642;28;20432;-76
2023/09/01 08:48:34;;;;;;;8.25;1.75;;;;;;;26.05;47.94;99866.03;4997995;28;20503;-75
2023/09/01 08:51:03;;;;;;;6.70;1.57;;;;;;;26.20;47.06;99865.88;4996506;28;20030;-74
2023/09/01 08:53:29;;;;;;;8.35;1.73;;;;;;;26.31;47.13;99857.81;4998252;28;20018;-74
2023/09/01 08:55:55;;;;;;;5.05;1.48;;;;;;;26.45;46.57;99864.84;4997907;28;20054;-77
2023/09/01 08:58:21;;;;;;;9.65;1.58;;;;;;;26.58;46.32;99862.03;4995088;28;20031;-74
2023/09/01 09:00:48;;;;;;;73.80;9.82;;;;;;;26.71;46.06;99855.69;4998851;28;20045;-75
2023/09/01 09:03:14;;;;;;;7.90;1.70;;;;;;;26.81;45.96;99859.38;4999412;28;20034;-75
2023/09/01 09:05:40;;;;;;;6.55;1.40;;;;;;;27.01;45.15;99865.06;4989238;28;20039;-77
2023/09/01 09:08:06;;;;;;;5.63;1.55;;;;;;;27.14;44.02;99855.00;4997280;28;20040;-76
2023/09/01 09:10:33;;;;;;;6.28;1.20;;;;;;;27.18;43.86;99861.88;4999544;28;20321;-76
2023/09/01 09:12:59;;;;;;;7.55;1.40;;;;;;;27.17;44.00;99864.69;4998939;28;20492;-76
2023/09/01 09:15:24;;;;;;;6.90;1.30;;;;;;;27.24;43.56;99857.78;4999283;28;20093;-76
2023/09/01 09:17:49;;;;;;;8.77;1.50;;;;;;;27.35;43.93;99860.50;4996362;28;20026;-77
2023/09/01 09:20:19;;;;;;;35.50;3.93;;;;;;;27.47;43.33;99860.47;4999436;28;20034;-78
2023/09/01 09:22:56;;;;;;;19.20;2.47;;;;;;;27.53;42.94;99864.56;4998848;28;20030;-77
2023/09/01 09:25:25;;;;;;;21.25;2.38;;;;;;;27.56;42.67;99854.34;4999084;28;20098;-77
2023/09/01 09:27:51;;;;;;;5.32;1.30;;;;;;;27.63;42.50;99854.72;4998980;28;20502;-78
2023/09/01 09:30:17;;;;;;;5.45;1.20;;;;;;;27.60;42.39;99847.72;4999067;28;20458;-76
2023/09/01 09:32:42;;;;;;;4.57;1.30;;;;;;;27.60;42.21;99850.41;4998537;28;20030;-77
2023/09/01 09:35:10;;;;;;;5.43;1.43;;;;;;;27.64;41.54;99846.47;4997609;28;20113;-77
2023/09/01 09:37:38;;;;;;;6.15;1.42;;;;;;;27.66;41.50;99849.06;4997911;28;20034;-75
2023/09/01 09:40:13;;;;;;;6.78;1.13;;;;;;;27.69;41.00;99847.91;4999019;28;20041;-76
2023/09/01 09:42:43;;;;;;;6.72;1.35;;;;;;;27.84;41.17;99848.47;4986721;28;20026;-75
2023/09/01 09:45:34;;;;;;;6.20;1.30;;;;;;;27.71;40.12;99848.66;4997791;28;20030;-76
2023/09/01 09:48:05;;;;;;;4.78;1.20;;;;;;;27.67;40.15;99839.06;4991071;28;20407;-75
2023/09/01 09:50:32;;;;;;;5.38;1.30;;;;;;;27.77;40.52;99846.28;4997970;28;20043;-75
2023/09/01 09:53:02;;;;;;;4.28;1.10;;;;;;;27.83;40.77;99833.25;4998627;28;20035;-76
2023/09/01 09:55:32;;;;;;;4.78;1.23;;;;;;;28.02;40.29;99833.41;4998373;28;20030;-76
2023/09/01 09:58:07;;;;;;;5.60;1.33;;;;;;;28.14;40.60;99830.66;4997363;28;20030;-75
2023/09/01 10:00:40;;;;;;;6.13;1.23;;;;;;;28.23;39.82;99824.47;4998157;28;20109;-76
2023/09/01 10:03:07;;;;;;;6.18;1.40;;;;;;;28.34;39.97;99824.44;4998553;28;20121;-76
2023/09/01 10:05:33;;;;;;;4.85;1.27;;;;;;;28.44;39.52;99824.47;4998564;28;20026;-76
2023/09/01 10:08:04;;;;;;;5.68;1.42;;;;;;;28.51;39.83;99827.50;4996663;28;20038;-77
2023/09/01 10:10:34;;;;;;;6.50;1.33;;;;;;;28.59;39.59;99824.13;4996658;28;20038;-77
2023/09/01 10:13:06;;;;;;;5.57;1.58;;;;;;;28.56;38.51;99819.84;4993830;28;20042;-77
2023/09/01 10:15:33;;;;;;;5.75;1.30;;;;;;;28.64;39.62;99816.47;4993823;28;20042;-77
2023/09/01 10:18:08;;;;;;;6.38;1.45;;;;;;;28.81;38.77;99817.72;4995211;28;20049;-77
2023/09/01 10:20:39;;;;;;;6.57;1.40;;;;;;;28.98;38.71;99808.09;4996607;28;20042;-78
2023/09/01 10:23:06;;;;;;;7.60;1.40;;;;;;;29.11;38.07;99802.44;5004627;28;20086;-78
2023/09/01 10:25:34;;;;;;;5.30;1.70;;;;;;;29.16;37.71;99800.16;4996146;28;20026;-75
2023/09/01 10:28:03;;;;;;;5.88;1.60;;;;;;;29.17;37.63;99801.00;4991310;28;20027;-77
2023/09/01 10:30:31;;;;;;;9.93;1.60;;;;;;;29.31;37.36;99805.22;4992622;28;20026;-77
2023/09/01 10:33:04;;;;;;;6.40;1.50;;;;;;;29.37;38.00;99782.94;4998014;28;20042;-77
2023/09/01 10:35:48;;;;;;;6.33;1.50;;;;;;;29.56;37.44;99784.84;4997675;28;20030;-77
2023/09/01 10:38:17;;;;;;;6.28;1.48;;;;;;;29.69;36.99;99784.56;4997976;28;20061;-77
2023/09/01 10:40:47;;;;;;;4.15;1.40;;;;;;;29.85;37.02;99794.00;4996548;28;20053;-77
2023/09/01 10:43:33;;;;;;;5.00;1.48;;;;;;;29.95;36.45;99778.56;4997537;28;20041;-77
2023/09/01 10:46:14;;;;;;;5.20;1.60;;;;;;;29.86;36.13;99779.44;4986475;28;20481;-78
2023/09/01 10:48:57;;;;;;;4.03;1.23;;;;;;;29.85;35.86;99777.72;4990624;28;20026;-76
2023/09/01 10:51:30;;;;;;;6.47;1.50;;;;;;;30.14;35.89;99776.84;4996451;28;20030;-78
2023/09/01 10:54:01;;;;;;;5.35;1.50;;;;;;;30.27;35.90;99777.41;4997841;28;20030;-77
2023/09/01 10:56:28;;;;;;;7.82;1.10;;;;;;;30.42;35.67;99768.78;4997626;28;20026;-78
2023/09/01 10:58:54;;;;;;;4.95;1.13;;;;;;;30.54;35.76;99773.03;4997230;28;20057;-77
2023/09/01 11:01:23;;;;;;;4.97;1.40;;;;;;;30.66;35.46;99776.47;4997246;28;20018;-77
2023/09/01 11:03:49;;;;;;;8.75;1.60;;;;;;;30.87;34.98;99770.78;4997670;28;20030;-78
2023/09/01 11:06:15;;;;;;;6.07;1.33;;;;;;;31.01;35.25;99766.72;4992645;28;20030;-76
2023/09/01 11:08:41;;;;;;;5.50;1.50;;;;;;;31.17;34.81;99763.31;4996696;28;20165;-75
2023/09/01 11:11:10;;;;;;;6.68;1.48;;;;;;;31.35;34.46;99757.09;4996210;28;20053;-78
2023/09/01 11:13:35;;;;;;;5.85;1.35;;;;;;;31.47;33.42;99761.31;4996699;28;20026;-75
2023/09/01 11:16:08;;;;;;;5.77;1.70;;;;;;;31.42;33.92;99755.44;4995904;28;20125;-75
2023/09/01 11:18:34;;;;;;;7.43;1.45;;;;;;;31.60;33.35;99752.75;4993931;28;20368;-74
2023/09/01 11:21:00;;;;;;;4.82;1.50;;;;;;;31.68;33.71;99754.66;4996827;28;20045;-74
2023/09/01 11:23:30;;;;;;;8.13;1.70;;;;;;;31.87;33.53;99747.38;4997405;28;20172;-75
2023/09/01 11:26:03;;;;;;;6.82;1.67;;;;;;;31.92;33.38;99742.31;4994765;28;20057;-74
2023/09/01 11:28:29;;;;;;;4.40;1.40;;;;;;;31.94;33.74;99737.56;4992236;28;20747;-73
2023/09/01 11:30:56;;;;;;;5.88;1.50;;;;;;;31.89;33.39;99737.19;4995508;28;20168;-74